createdAt,value
2023-05-22T00:02:08.569Z,100798.83
2023-05-22T00:04:36.560Z,100796.13
2023-05-22T00:07:06.687Z,100790.46
2023-05-22T00:09:34.472Z,100792.45
2023-05-22T00:12:02.182Z,100790.73
2023-05-22T00:14:29.966Z,100793.75
2023-05-22T00:16:58.474Z,100789.93
2023-05-22T00:19:26.426Z,100785.92
2023-05-22T00:21:55.388Z,100784.55
2023-05-22T00:24:23.072Z,100786.72
2023-05-22T00:26:50.695Z,100787.24
2023-05-22T00:29:18.454Z,100782.56
2023-05-22T00:31:46.102Z,100781.45
2023-05-22T00:34:13.886Z,100783.08
2023-05-22T00:36:42.215Z,100786.20
2023-05-22T00:39:09.962Z,100788.63
2023-05-22T00:41:38.914Z,100792.57
2023-05-22T00:44:08.203Z,100789.82
2023-05-22T00:46:36.635Z,100790.38
2023-05-22T00:49:04.912Z,100791.00
2023-05-22T00:51:33.110Z,100790.16
2023-05-22T00:54:00.880Z,100787.80
2023-05-22T00:56:29.198Z,100788.96
2023-05-22T00:58:57.028Z,100787.05
2023-05-22T01:01:26.824Z,100786.44
2023-05-22T01:03:55.882Z,100786.16
2023-05-22T01:06:24.522Z,100784.45
2023-05-22T01:08:52.249Z,100787.98
2023-05-22T01:11:32.040Z,100787.41
2023-05-22T01:14:23.545Z,100788.48
2023-05-22T01:17:12.282Z,100787.02
2023-05-22T01:20:01.621Z,100785.83
2023-05-22T01:23:08.791Z,100786.43
2023-05-22T01:26:24.794Z,100784.41
2023-05-22T01:29:21.716Z,100785.10
2023-05-22T01:31:52.880Z,100783.89
2023-05-22T01:34:21.570Z,100781.39
2023-05-22T01:36:54.449Z,100783.81
2023-05-22T01:39:25.742Z,100785.45
2023-05-22T01:41:53.792Z,100783.31
2023-05-22T01:44:21.589Z,100783.52
2023-05-22T01:46:49.368Z,100784.84
2023-05-22T01:49:17.926Z,100787.14
2023-05-22T01:52:03.750Z,100786.09
2023-05-22T01:54:39.899Z,100786.83
2023-05-22T01:57:27.453Z,100785.10
2023-05-22T02:00:15.251Z,100784.38
2023-05-22T02:02:48.469Z,100786.23
2023-05-22T02:05:18.886Z,100789.20
2023-05-22T02:07:48.416Z,100786.27
2023-05-22T02:10:17.604Z,100788.05
2023-05-22T02:12:46.049Z,100786.24
2023-05-22T02:15:14.613Z,100782.73
2023-05-22T02:17:42.606Z,100787.63
2023-05-22T02:20:14.661Z,100789.09
2023-05-22T02:22:44.408Z,100792.09
2023-05-22T02:25:16.981Z,100790.26
2023-05-22T02:27:47.451Z,100793.50
2023-05-22T02:30:15.600Z,100791.16
2023-05-22T02:32:43.942Z,100785.70
2023-05-22T02:35:11.803Z,100791.33
2023-05-22T02:37:39.708Z,100785.80
2023-05-22T02:40:10.121Z,100784.38
2023-05-22T02:42:37.944Z,100784.55
2023-05-22T02:45:07.088Z,100780.73
2023-05-22T02:47:34.886Z,100780.50
2023-05-22T02:50:03.326Z,100779.35
2023-05-22T02:52:32.321Z,100778.07
2023-05-22T02:54:59.982Z,100779.54
2023-05-22T02:57:28.005Z,100778.86
2023-05-22T02:59:57.669Z,100774.35
2023-05-22T03:02:28.469Z,100771.45
2023-05-22T03:04:59.143Z,100766.55
2023-05-22T03:07:27.109Z,100766.12
2023-05-22T03:09:55.384Z,100762.42
2023-05-22T03:12:23.966Z,100764.90
2023-05-22T03:14:51.702Z,100762.98
2023-05-22T03:17:19.462Z,100760.39
2023-05-22T03:19:47.139Z,100763.13
2023-05-22T03:22:14.875Z,100761.27
2023-05-22T03:24:42.678Z,100763.89
2023-05-22T03:27:11.609Z,100765.45
2023-05-22T03:29:39.250Z,100763.49
2023-05-22T03:32:07.182Z,100764.24
2023-05-22T03:34:34.999Z,100764.56
2023-05-22T03:37:02.767Z,100764.33
2023-05-22T03:39:30.519Z,100765.30
2023-05-22T03:41:58.305Z,100768.56
2023-05-22T03:44:25.940Z,100771.34
2023-05-22T03:46:54.190Z,100768.39
2023-05-22T03:49:22.934Z,100769.66
2023-05-22T03:51:50.984Z,100769.27
2023-05-22T03:54:19.024Z,100770.05
2023-05-22T03:56:46.911Z,100774.79
2023-05-22T03:59:14.618Z,100774.27
2023-05-22T04:01:42.832Z,100775.87
2023-05-22T04:04:12.271Z,100777.74
2023-05-22T04:06:43.392Z,100779.76
2023-05-22T04:09:12.364Z,100778.52
2023-05-22T04:11:42.270Z,100778.04
2023-05-22T04:14:10.361Z,100778.27
2023-05-22T04:16:38.481Z,100776.48
2023-05-22T04:19:06.766Z,100777.27
2023-05-22T04:21:35.583Z,100778.94
2023-05-22T04:24:07.310Z,100771.66
2023-05-22T04:26:40.423Z,100766.23
2023-05-22T04:29:11.109Z,100766.88
2023-05-22T04:31:39.022Z,100763.55
2023-05-22T04:34:09.317Z,100758.61
2023-05-22T04:36:39.081Z,100761.58
2023-05-22T04:39:07.173Z,100755.52
2023-05-22T04:41:35.579Z,100753.25
2023-05-22T04:44:04.129Z,100749.96
2023-05-22T04:46:34.738Z,100748.92
2023-05-22T04:49:03.477Z,100747.95
2023-05-22T04:51:33.064Z,100749.95
2023-05-22T04:54:00.969Z,100749.77
2023-05-22T04:56:36.328Z,100751.95
2023-05-22T04:59:09.632Z,100751.38
2023-05-22T05:01:38.802Z,100755.05
2023-05-22T05:04:16.112Z,100757.52
2023-05-22T05:06:45.253Z,100759.02
2023-05-22T05:09:14.972Z,100762.96
2023-05-22T05:11:42.891Z,100759.89
2023-05-22T05:14:11.750Z,100762.56
2023-05-22T05:16:41.262Z,100761.11
2023-05-22T05:22:53.778Z,100771.83
2023-05-22T05:25:21.839Z,100770.79
2023-05-22T05:27:50.868Z,100771.85
2023-05-22T05:30:20.607Z,100766.77
2023-05-22T05:32:49.283Z,100770.33
2023-05-22T05:35:20.280Z,100768.14
2023-05-22T05:37:48.072Z,100766.29
2023-05-22T05:40:17.262Z,100768.80
2023-05-22T05:42:45.089Z,100770.29
2023-05-22T05:45:13.627Z,100772.34
2023-05-22T05:47:42.496Z,100775.39
2023-05-22T05:50:11.089Z,100776.22
2023-05-22T05:52:38.852Z,100778.61
2023-05-22T05:55:06.748Z,100776.52
2023-05-22T05:57:34.902Z,100775.67
2023-05-22T06:00:04.584Z,100780.49
2023-05-22T06:02:56.493Z,100780.92
2023-05-22T06:05:27.347Z,100778.37
2023-05-22T06:07:58.347Z,100777.83
2023-05-22T06:10:26.429Z,100777.15
2023-05-22T06:12:54.199Z,100777.88
2023-05-22T06:15:22.082Z,100774.71
2023-05-22T06:17:49.985Z,100772.77
2023-05-22T06:20:17.717Z,100772.84
2023-05-22T06:22:46.409Z,100766.11
2023-05-22T06:25:14.259Z,100765.39
2023-05-22T06:27:42.759Z,100768.58
2023-05-22T06:30:10.962Z,100764.27
2023-05-22T06:32:38.957Z,100760.24
2023-05-22T06:35:08.663Z,100762.67
2023-05-22T06:37:37.900Z,100763.10
2023-05-22T06:40:07.097Z,100760.44
2023-05-22T06:42:35.208Z,100766.19
2023-05-22T06:45:03.137Z,100769.98
2023-05-22T06:47:32.743Z,100773.58
2023-05-22T06:50:00.427Z,100768.50
2023-05-22T06:52:29.734Z,100770.76
2023-05-22T06:55:04.324Z,100770.95
2023-05-22T06:57:33.149Z,100764.95
2023-05-22T07:00:01.517Z,100766.33
2023-05-22T07:02:29.294Z,100769.48
2023-05-22T07:04:57.050Z,100766.98
2023-05-22T07:07:24.885Z,100767.13
2023-05-22T07:09:52.649Z,100768.45
2023-05-22T07:12:21.051Z,100770.23
2023-05-22T07:14:48.778Z,100767.91
2023-05-22T07:17:16.884Z,100763.96
2023-05-22T07:19:45.145Z,100763.75
2023-05-22T07:22:12.949Z,100766.34
2023-05-22T07:24:40.694Z,100768.00
2023-05-22T07:27:09.618Z,100763.40
2023-05-22T07:29:38.943Z,100762.89
2023-05-22T07:32:08.678Z,100766.37
2023-05-22T07:34:36.390Z,100766.80
2023-05-22T07:37:08.983Z,100769.71
2023-05-22T07:39:36.805Z,100760.58
2023-05-22T07:42:04.988Z,100762.52
2023-05-22T07:44:33.704Z,100758.41
2023-05-22T07:47:01.499Z,100752.64
2023-05-22T07:49:29.887Z,100752.09
2023-05-22T07:51:58.257Z,100753.23
2023-05-22T07:54:26.310Z,100750.54
2023-05-22T07:56:56.168Z,100748.98
2023-05-22T07:59:25.555Z,100746.52
2023-05-22T08:01:54.212Z,100743.89
2023-05-22T08:04:22.396Z,100744.87
2023-05-22T08:06:50.862Z,100743.45
2023-05-22T08:09:21.250Z,100745.67
2023-05-22T08:11:50.158Z,100746.87
2023-05-22T08:14:20.219Z,100746.05
2023-05-22T08:16:48.407Z,100746.44
2023-05-22T08:19:16.912Z,100744.63
2023-05-22T08:21:45.527Z,100739.23
2023-05-22T08:24:13.665Z,100736.27
2023-05-22T08:26:43.292Z,100736.86
2023-05-22T08:29:11.768Z,100728.86
2023-05-22T08:31:39.567Z,100725.27
2023-05-22T08:34:13.574Z,100732.45
2023-05-22T08:36:41.537Z,100732.58
2023-05-22T08:39:12.225Z,100735.41
2023-05-22T08:41:40.127Z,100736.11
2023-05-22T08:44:08.550Z,100727.48
2023-05-22T08:46:41.947Z,100729.16
2023-05-22T08:49:10.918Z,100733.75
2023-05-22T08:51:40.642Z,100731.91
2023-05-22T08:54:10.136Z,100731.88
2023-05-22T08:56:53.038Z,100739.23
2023-05-22T08:59:24.568Z,100739.11
2023-05-22T09:01:52.871Z,100733.83
2023-05-22T09:04:24.349Z,100726.98
2023-05-22T09:06:53.081Z,100726.31
2023-05-22T09:09:21.194Z,100725.41
2023-05-22T09:11:49.962Z,100723.18
2023-05-22T09:14:18.754Z,100724.79
2023-05-22T09:16:53.118Z,100725.45
2023-05-22T09:19:21.547Z,100722.80
2023-05-22T09:21:49.887Z,100715.89
2023-05-22T09:24:18.727Z,100713.11
2023-05-22T09:26:48.501Z,100715.21
2023-05-22T09:29:17.064Z,100707.92
2023-05-22T09:31:45.232Z,100700.84
2023-05-22T09:34:17.839Z,100700.49
2023-05-22T09:36:45.819Z,100698.23
2023-05-22T09:39:13.776Z,100696.27
2023-05-22T09:41:41.512Z,100696.29
2023-05-22T09:44:14.134Z,100691.58
2023-05-22T09:46:45.338Z,100692.87
2023-05-22T09:49:15.789Z,100686.05
2023-05-22T09:51:49.523Z,100693.66
2023-05-22T09:54:20.067Z,100693.80
2023-05-22T09:56:50.342Z,100691.84
2023-05-22T09:59:26.897Z,100687.94
2023-05-22T10:01:55.372Z,100685.84
2023-05-22T10:04:24.118Z,100684.48
2023-05-22T10:11:11.935Z,100688.00
2023-05-22T10:13:41.472Z,100690.98
2023-05-22T10:20:29.763Z,100678.09
2023-05-22T10:22:57.654Z,100676.15
2023-05-22T10:25:26.333Z,100678.27
2023-05-22T10:27:55.726Z,100678.80
2023-05-22T10:30:44.505Z,100670.34
2023-05-22T10:33:20.112Z,100671.21
2023-05-22T10:35:59.217Z,100671.77
2023-05-22T10:38:30.051Z,100667.55
2023-05-22T10:41:04.422Z,100668.83
2023-05-22T10:43:33.255Z,100667.77
2023-05-22T10:46:04.290Z,100667.10
2023-05-22T10:48:53.438Z,100664.07
2023-05-22T10:51:23.205Z,100667.61
2023-05-22T10:54:02.700Z,100668.42
2023-05-22T10:56:50.587Z,100665.08
2023-05-22T10:59:35.332Z,100658.27
2023-05-22T11:02:06.514Z,100658.63
2023-05-22T11:04:34.887Z,100661.13
2023-05-22T11:07:07.918Z,100663.98
2023-05-22T11:09:48.803Z,100667.30
2023-05-22T11:12:31.168Z,100664.52
2023-05-22T11:15:06.139Z,100660.41
2023-05-22T11:17:41.608Z,100664.80
2023-05-22T11:20:13.268Z,100655.52
2023-05-22T11:22:52.230Z,100651.08
2023-05-22T11:25:20.387Z,100647.34
2023-05-22T11:27:49.276Z,100647.02
2023-05-22T11:30:17.535Z,100644.34
2023-05-22T11:32:45.985Z,100641.00
2023-05-22T11:35:18.457Z,100637.59
2023-05-22T11:37:47.638Z,100632.22
2023-05-22T11:40:18.111Z,100632.39
2023-05-22T11:42:47.672Z,100637.30
2023-05-22T11:45:16.525Z,100639.66
2023-05-22T11:47:47.117Z,100637.44
2023-05-22T11:50:17.930Z,100638.96
2023-05-22T11:52:53.834Z,100635.52
2023-05-22T11:55:23.956Z,100629.70
2023-05-22T11:57:55.891Z,100631.20
2023-05-22T12:00:27.805Z,100627.29
2023-05-22T12:02:56.696Z,100629.60
2023-05-22T12:05:24.832Z,100626.77
2023-05-22T12:07:53.139Z,100625.31
2023-05-22T12:10:21.203Z,100624.27
2023-05-22T12:12:49.193Z,100623.85
2023-05-22T12:15:21.423Z,100625.57
2023-05-22T12:17:50.529Z,100620.42
2023-05-22T12:20:19.199Z,100617.48
2023-05-22T12:22:49.545Z,100611.86
2023-05-22T12:25:17.760Z,100608.21
2023-05-22T12:27:50.212Z,100604.10
2023-05-22T12:30:19.270Z,100602.85
2023-05-22T12:32:50.329Z,100597.84
2023-05-22T12:35:19.659Z,100595.10
2023-05-22T12:37:53.176Z,100595.12
2023-05-22T12:40:22.446Z,100591.66
2023-05-22T12:42:52.938Z,100587.66
2023-05-22T12:45:21.435Z,100584.68
2023-05-22T12:47:49.684Z,100586.99
2023-05-22T12:50:19.208Z,100588.80
2023-05-22T12:52:48.205Z,100589.44
2023-05-22T12:55:16.112Z,100587.48
2023-05-22T12:57:52.186Z,100582.55
2023-05-22T13:00:20.592Z,100587.33
2023-05-22T13:02:51.236Z,100587.48
2023-05-22T13:05:21.076Z,100584.83
2023-05-22T13:07:49.518Z,100586.61
2023-05-22T13:10:21.610Z,100586.17
2023-05-22T13:12:51.699Z,100583.95
2023-05-22T13:15:20.364Z,100579.24
2023-05-22T13:17:50.442Z,100573.96
2023-05-22T13:20:32.364Z,100576.48
2023-05-22T13:23:01.254Z,100573.58
2023-05-22T13:25:36.216Z,100568.89
2023-05-22T13:28:05.439Z,100576.24
2023-05-22T13:30:35.583Z,100570.55
2023-05-22T13:33:04.147Z,100564.77
2023-05-22T13:35:33.078Z,100568.91
2023-05-22T13:38:02.024Z,100562.58
2023-05-22T13:40:31.525Z,100557.23
2023-05-22T13:43:02.653Z,100560.88
2023-05-22T13:45:32.215Z,100561.73
2023-05-22T13:48:01.340Z,100556.34
2023-05-22T13:53:13.900Z,100554.45
2023-05-22T13:55:44.580Z,100547.00
2023-05-22T13:58:12.830Z,100545.42
2023-05-22T14:00:44.654Z,100539.52
2023-05-22T14:03:17.813Z,100535.45
2023-05-22T14:05:59.395Z,100534.16
2023-05-22T14:08:27.766Z,100529.67
2023-05-22T14:10:55.918Z,100528.80
2023-05-22T14:13:23.802Z,100526.44
2023-05-22T14:15:51.682Z,100524.33
2023-05-22T14:18:19.802Z,100522.02
2023-05-22T14:20:47.695Z,100525.01
2023-05-22T14:23:15.762Z,100533.04
2023-05-22T14:25:43.929Z,100529.80
2023-05-22T14:28:14.598Z,100529.46
2023-05-22T14:30:43.118Z,100528.38
2023-05-22T14:33:12.588Z,100526.86
2023-05-22T14:35:41.066Z,100525.75
2023-05-22T14:38:09.136Z,100522.59
2023-05-22T14:40:36.981Z,100519.15
2023-05-22T14:43:04.743Z,100514.98
2023-05-22T14:45:32.629Z,100513.87
2023-05-22T14:48:01.364Z,100509.29
2023-05-22T14:50:29.483Z,100506.61
2023-05-22T14:52:57.805Z,100506.63
2023-05-22T14:55:32.168Z,100501.58
2023-05-22T14:58:02.194Z,100503.77
2023-05-22T15:00:33.341Z,100500.05
2023-05-22T15:03:05.504Z,100506.52
2023-05-22T15:05:33.480Z,100509.08
2023-05-22T15:08:03.496Z,100506.66
2023-05-22T15:10:32.747Z,100507.36
2023-05-22T15:13:01.514Z,100507.43
2023-05-22T15:15:29.560Z,100512.02
2023-05-22T15:18:02.807Z,100508.39
2023-05-22T15:20:32.270Z,100504.52
2023-05-22T15:23:03.472Z,100497.61
2023-05-22T15:25:36.620Z,100497.46
2023-05-22T15:28:11.075Z,100490.23
2023-05-22T15:30:42.786Z,100490.40
2023-05-22T15:33:13.150Z,100489.93
2023-05-22T15:35:42.047Z,100495.16
2023-05-22T15:38:13.327Z,100493.73
2023-05-22T15:40:41.854Z,100489.01
2023-05-22T15:43:10.746Z,100485.77
2023-05-22T15:45:39.128Z,100490.38
2023-05-22T15:48:07.306Z,100488.16
2023-05-22T15:50:35.626Z,100487.89
2023-05-22T15:53:03.753Z,100481.33
2023-05-22T15:55:35.685Z,100473.34
2023-05-22T15:58:06.277Z,100463.98
2023-05-22T16:00:41.231Z,100456.66
2023-05-22T16:03:11.380Z,100454.30
2023-05-22T16:05:40.166Z,100451.83
2023-05-22T16:08:10.490Z,100450.10
2023-05-22T16:10:41.477Z,100452.27
2023-05-22T16:13:12.917Z,100451.02
2023-05-22T16:15:41.342Z,100451.91
2023-05-22T16:18:09.802Z,100448.00
2023-05-22T16:20:38.910Z,100448.73
2023-05-22T16:23:06.776Z,100446.91
2023-05-22T16:25:35.881Z,100443.29
2023-05-22T16:28:05.614Z,100440.46
2023-05-22T16:30:35.950Z,100435.89
2023-05-22T16:33:03.788Z,100433.66
2023-05-22T16:35:34.261Z,100434.06
2023-05-22T16:38:02.226Z,100429.78
2023-05-22T16:40:38.209Z,100433.20
2023-05-22T16:43:09.915Z,100434.52
2023-05-22T16:45:38.978Z,100436.88
2023-05-22T16:48:08.312Z,100435.07
2023-05-22T16:50:36.312Z,100436.59
2023-05-22T16:53:04.048Z,100435.27
2023-05-22T16:55:32.652Z,100432.84
2023-05-22T16:58:00.517Z,100435.85
2023-05-22T17:00:28.648Z,100432.18
2023-05-22T17:02:56.977Z,100432.67
2023-05-22T17:05:26.426Z,100437.33
2023-05-22T17:07:54.362Z,100432.43
2023-05-22T17:10:22.458Z,100438.77
2023-05-22T17:12:50.450Z,100442.59
2023-05-22T17:17:49.026Z,100439.14
2023-05-22T17:20:16.853Z,100444.22
2023-05-22T17:22:45.375Z,100444.89
2023-05-22T17:25:14.500Z,100442.39
2023-05-22T17:27:42.332Z,100444.80
2023-05-22T17:30:11.132Z,100448.06
2023-05-22T17:32:39.257Z,100448.77
2023-05-22T17:35:07.242Z,100447.16
2023-05-22T17:37:35.079Z,100447.45
2023-05-22T17:40:03.945Z,100446.02
2023-05-22T17:42:31.654Z,100444.78
2023-05-22T17:44:59.405Z,100443.19
2023-05-22T17:47:30.584Z,100442.52
2023-05-22T17:49:58.495Z,100443.63
2023-05-22T17:52:27.004Z,100440.27
2023-05-22T17:54:57.776Z,100435.64
2023-05-22T17:57:28.138Z,100433.73
2023-05-22T17:59:55.894Z,100427.31
2023-05-22T18:02:24.102Z,100424.08
2023-05-22T18:04:52.313Z,100426.89
2023-05-22T18:07:20.268Z,100423.81
2023-05-22T18:09:48.526Z,100422.17
2023-05-22T18:12:31.335Z,100424.87
2023-05-22T18:14:59.803Z,100422.33
2023-05-22T18:17:27.808Z,100425.10
2023-05-22T18:19:57.253Z,100421.18
2023-05-22T18:22:26.655Z,100416.64
2023-05-22T18:24:54.664Z,100417.23
2023-05-22T18:27:23.644Z,100420.33
2023-05-22T18:29:53.956Z,100417.52
2023-05-22T18:32:22.854Z,100412.82
2023-05-22T18:34:52.298Z,100416.35
2023-05-22T18:37:21.283Z,100417.71
2023-05-22T18:39:54.565Z,100416.86
2023-05-22T18:42:22.366Z,100420.14
2023-05-22T18:44:50.738Z,100416.30
2023-05-22T18:47:19.551Z,100417.99
2023-05-22T18:49:48.748Z,100418.06
2023-05-22T18:52:21.058Z,100421.20
2023-05-22T18:54:52.507Z,100424.05
2023-05-22T18:57:20.253Z,100426.44
2023-05-22T18:59:51.880Z,100430.66
2023-05-22T19:02:21.834Z,100431.27
2023-05-22T19:04:50.976Z,100429.59
2023-05-22T19:07:18.921Z,100431.23
2023-05-22T19:10:35.789Z,100431.05
2023-05-22T19:14:32.902Z,100431.88
2023-05-22T19:17:00.712Z,100428.84
2023-05-22T19:19:28.514Z,100431.03
2023-05-22T19:21:56.852Z,100426.98
2023-05-22T19:24:27.383Z,100429.45
2023-05-22T19:26:57.390Z,100426.75
2023-05-22T19:29:25.171Z,100425.41
2023-05-22T19:31:52.960Z,100422.78
2023-05-22T19:34:20.914Z,100425.70
2023-05-22T19:36:51.701Z,100427.87
2023-05-22T19:39:19.456Z,100428.15
2023-05-22T19:41:47.542Z,100428.89
2023-05-22T19:44:15.197Z,100421.83
2023-05-22T19:46:43.691Z,100421.16
2023-05-22T19:49:11.484Z,100419.29
2023-05-22T19:51:40.666Z,100420.89
2023-05-22T19:54:08.357Z,100422.34
2023-05-22T19:56:36.331Z,100419.41
2023-05-22T19:59:04.030Z,100417.91
2023-05-22T20:01:31.777Z,100418.54
2023-05-22T20:04:01.027Z,100420.79
2023-05-22T20:06:31.695Z,100425.97
2023-05-22T20:08:59.512Z,100424.80
2023-05-22T20:11:28.924Z,100421.48
2023-05-22T20:13:57.699Z,100422.44
2023-05-22T20:16:28.544Z,100418.21
2023-05-22T20:18:57.255Z,100416.12
2023-05-22T20:21:24.990Z,100411.72
2023-05-22T20:23:53.305Z,100409.98
2023-05-22T20:26:21.564Z,100408.59
2023-05-22T20:28:49.639Z,100408.73
2023-05-22T20:31:17.560Z,100408.48
2023-05-22T20:33:45.494Z,100410.11
2023-05-22T20:36:17.022Z,100407.42
2023-05-22T20:38:44.690Z,100405.48
2023-05-22T20:41:14.087Z,100402.89
2023-05-22T20:43:44.655Z,100405.23
2023-05-22T20:46:12.496Z,100401.50
2023-05-22T20:48:46.872Z,100397.46
2023-05-22T20:51:20.487Z,100399.96
2023-05-22T20:53:48.546Z,100400.84
2023-05-22T20:56:16.330Z,100398.11
2023-05-22T20:58:44.025Z,100396.89
2023-05-22T21:01:11.715Z,100401.91
2023-05-22T21:03:41.368Z,100401.00
2023-05-22T21:06:09.509Z,100399.11
2023-05-22T21:08:37.144Z,100399.06
2023-05-22T21:11:06.921Z,100400.57
2023-05-22T21:14:17.886Z,100399.38
2023-05-22T21:16:44.155Z,100397.35
2023-05-22T21:19:10.559Z,100397.16
2023-05-22T21:21:40.858Z,100396.80
2023-05-22T21:24:10.328Z,100396.23
2023-05-22T21:26:36.889Z,100394.43
2023-05-22T21:29:03.912Z,100391.02
2023-05-22T21:31:31.496Z,100393.28
2023-05-22T21:33:58.601Z,100387.98
2023-05-22T21:36:25.500Z,100391.60
2023-05-22T21:38:52.654Z,100385.35
2023-05-22T21:41:19.051Z,100383.64
2023-05-22T21:43:46.798Z,100384.26
2023-05-22T21:46:13.140Z,100387.72
2023-05-22T21:48:39.705Z,100388.19
2023-05-22T21:51:06.491Z,100391.88
2023-05-22T21:53:32.811Z,100392.61
2023-05-22T21:55:59.096Z,100395.95
2023-05-22T21:58:25.672Z,100395.14
2023-05-22T22:00:51.987Z,100395.07
2023-05-22T22:03:18.323Z,100393.31
2023-05-22T22:05:45.094Z,100389.55
2023-05-22T22:08:11.327Z,100386.73
2023-05-22T22:10:38.087Z,100387.98
2023-05-22T22:13:05.161Z,100387.09
2023-05-22T22:15:33.156Z,100390.49
2023-05-22T22:18:01.486Z,100385.74
2023-05-22T22:20:43.341Z,100385.71
2023-05-22T22:23:10.433Z,100382.98
2023-05-22T22:25:59.101Z,100379.27
2023-05-22T22:29:41.822Z,100377.16
2023-05-22T22:33:18.827Z,100375.19
2023-05-22T22:37:09.688Z,100376.50
2023-05-22T22:39:38.240Z,100376.37
2023-05-22T22:42:06.200Z,100375.85
2023-05-22T22:44:34.133Z,100374.11
2023-05-22T22:47:02.246Z,100377.31
2023-05-22T22:49:32.101Z,100376.39
2023-05-22T22:51:59.911Z,100378.06
2023-05-22T22:54:27.935Z,100376.23
2023-05-22T22:56:55.752Z,100373.60
2023-05-22T22:59:23.420Z,100375.52
2023-05-22T23:01:51.193Z,100372.29
2023-05-22T23:04:19.278Z,100372.44
2023-05-22T23:06:47.001Z,100367.14
2023-05-22T23:09:15.157Z,100364.87
2023-05-22T23:11:42.915Z,100360.33
2023-05-22T23:14:10.582Z,100354.02
2023-05-22T23:16:42.642Z,100354.75
2023-05-22T23:19:11.005Z,100350.15
2023-05-22T23:22:35.287Z,100344.80
2023-05-22T23:26:12.298Z,100341.52
2023-05-22T23:28:39.997Z,100338.40
2023-05-22T23:31:09.938Z,100339.24
2023-05-22T23:33:38.108Z,100339.11
2023-05-22T23:36:06.042Z,100335.92
2023-05-22T23:38:33.700Z,100335.05
2023-05-22T23:41:01.434Z,100330.34
2023-05-22T23:43:29.129Z,100332.05
2023-05-22T23:45:57.673Z,100332.84
2023-05-22T23:48:25.719Z,100332.35
2023-05-22T23:51:26.185Z,100324.31
2023-05-22T23:55:04.090Z,100328.33
2023-05-22T23:58:42.189Z,100325.58
